Time;durP1;ratioP1;P1;durP2;ratioP2;P2;SDS_P1;SDS_P2;PMS_P1;PMS_P2;Temp;Humidity;BMP_temperature;BMP_pressure;BME280_temperature;BME280_humidity;BME280_pressure;Samples;Min_cycle;Max_cycle;Signal;HPM_P1;HPM_P2
2023/05/04 00:07:50;;;;;;;21.4;17.5;;;;;;;10.3;87.6;99500;;;;
2023/05/04 00:17:50;;;;;;;24.9;20.4;;;;;;;10.3;88;99500;;;;
2023/05/04 00:28:50;;;;;;;24.9;20.4;;;;;;;10.4;88.4;99490;;;;
2023/05/04 00:38:50;;;;;;;24.9;20.4;;;;;;;10.5;88.2;99490;;;;
2023/05/04 00:48:51;;;;;;;22.5;18.6;;;;;;;10.5;87.9;99490;;;;
2023/05/04 00:58:53;;;;;;;22.5;18.6;;;;;;;10.5;87.8;99490;;;;
2023/05/04 01:08:50;;;;;;;22.5;18.6;;;;;;;10.4;88.3;99490;;;;
2023/05/04 01:18:50;;;;;;;23.7;19.7;;;;;;;10.4;88.1;99490;;;;
2023/05/04 01:29:51;;;;;;;23.7;19.7;;;;;;;10.4;88.1;99490;;;;
2023/05/04 01:40:50;;;;;;;23.7;19.7;;;;;;;10.2;88.2;99480;;;;
2023/05/04 01:51:50;;;;;;;24.2;20;;;;;;;10.3;88.4;99470;;;;
2023/05/04 02:01:50;;;;;;;24.2;20;;;;;;;10.4;88;99480;;;;
2023/05/04 02:11:50;;;;;;;24.2;20;;;;;;;10.3;87.6;99470;;;;
2023/05/04 02:21:51;;;;;;;23.4;18.6;;;;;;;10.2;87.5;99470;;;;
2023/05/04 02:32:51;;;;;;;23.4;18.6;;;;;;;10.1;87.1;99460;;;;
2023/05/04 02:43:50;;;;;;;23.4;18.6;;;;;;;9.9;86.6;99460;;;;
2023/05/04 02:53:50;;;;;;;19.5;15.3;;;;;;;9.6;85.7;99450;;;;
2023/05/04 03:03:50;;;;;;;19.5;15.3;;;;;;;9.5;85.6;99450;;;;
2023/05/04 03:14:50;;;;;;;19.5;15.3;;;;;;;9.4;85.1;99460;;;;
2023/05/04 03:24:50;;;;;;;13.2;10.4;;;;;;;9.3;85.2;99470;;;;
2023/05/04 03:35:50;;;;;;;13.2;10.4;;;;;;;9.4;85.1;99480;;;;
2023/05/04 03:46:50;;;;;;;13.2;10.4;;;;;;;9.4;85.1;99470;;;;
2023/05/04 03:56:50;;;;;;;17.4;10.3;;;;;;;9.5;85.4;99470;;;;
2023/05/04 04:07:51;;;;;;;17.4;10.3;;;;;;;9.7;85;99480;;;;
2023/05/04 04:18:50;;;;;;;16.7;11.2;;;;;;;9.9;84.4;99480;;;;
2023/05/04 04:29:50;;;;;;;16.7;11.2;;;;;;;9.9;84;99480;;;;
2023/05/04 04:40:50;;;;;;;16.7;11.2;;;;;;;10.1;83.8;99490;;;;
2023/05/04 04:50:51;;;;;;;21.5;15.3;;;;;;;10.2;84.1;99490;;;;
2023/05/04 05:01:50;;;;;;;21.5;15.3;;;;;;;10.5;84.6;99500;;;;
2023/05/04 05:11:50;;;;;;;21.5;15.3;;;;;;;10.8;84.1;99510;;;;
2023/05/04 05:22:51;;;;;;;31.6;22.6;;;;;;;11;84;99510;;;;
2023/05/04 05:33:50;;;;;;;31.6;22.6;;;;;;;11;83.8;99510;;;;
2023/05/04 05:43:50;;;;;;;31.6;22.6;;;;;;;11;84.1;99520;;;;
2023/05/04 05:54:50;;;;;;;30.9;22.6;;;;;;;10.8;84.5;99520;;;;
2023/05/04 06:04:50;;;;;;;30.9;22.6;;;;;;;11.2;83.8;99520;;;;
2023/05/04 06:15:50;;;;;;;30.9;22.6;;;;;;;12;83.1;99530;;;;
2023/05/04 06:25:50;;;;;;;27.7;18.9;;;;;;;12.5;80.8;99520;;;;
2023/05/04 06:36:50;;;;;;;27.7;18.9;;;;;;;13;78.9;99520;;;;
2023/05/04 06:46:50;;;;;;;27.7;18.9;;;;;;;13.3;76.5;99520;;;;
2023/05/04 06:57:51;;;;;;;25.2;19.9;;;;;;;13.3;76.1;99520;;;;
2023/05/04 07:07:50;;;;;;;25.2;19.9;;;;;;;14.1;75.1;99510;;;;
2023/05/04 07:18:50;;;;;;;24.2;19.6;;;;;;;14;72.9;99510;;;;
2023/05/04 07:29:50;;;;;;;24.2;19.6;;;;;;;13.7;72.7;99500;;;;
2023/05/04 07:40:50;;;;;;;24.2;19.6;;;;;;;13.6;70;99510;;;;
2023/05/04 07:50:50;;;;;;;24.2;19.6;;;;;;;13.5;68.2;99510;;;;
2023/05/04 08:01:50;;;;;;;18.2;14.3;;;;;;;13.5;63.3;99510;;;;
2023/05/04 08:11:51;;;;;;;18.2;14.3;;;;;;;14.1;63;99510;;;;
2023/05/04 08:21:50;;;;;;;9.8;7.2;;;;;;;14.1;59;99510;;;;
2023/05/04 08:31:50;;;;;;;9.8;7.2;;;;;;;14.2;57.1;99510;;;;
2023/05/04 08:41:50;;;;;;;9.8;7.2;;;;;;;14.5;56.7;99510;;;;
2023/05/04 08:52:51;;;;;;;9.9;5.2;;;;;;;14.3;55.7;99510;;;;
2023/05/04 09:02:50;;;;;;;9.9;5.2;;;;;;;14.7;52.8;99520;;;;
2023/05/04 09:12:52;;;;;;;9.9;5.2;;;;;;;15;50.3;99500;;;;
2023/05/04 09:23:50;;;;;;;7.5;4.1;;;;;;;15.5;50;99490;;;;
2023/05/04 09:33:50;;;;;;;7.5;4.1;;;;;;;15.5;50.6;99490;;;;
2023/05/04 09:44:51;;;;;;;7.5;4.1;;;;;;;16.1;51.2;99480;;;;
2023/05/04 09:55:50;;;;;;;9.8;4.8;;;;;;;16.8;48.9;99490;;;;
2023/05/04 10:06:50;;;;;;;9.8;4.8;;;;;;;16.1;49.9;99470;;;;
2023/05/04 10:17:50;;;;;;;6.7;4.2;;;;;;;16.4;51.4;99460;;;;
2023/05/04 10:27:50;;;;;;;6.7;4.2;;;;;;;16.5;50.7;99450;;;;
2023/05/04 10:37:53;;;;;;;6.7;4.2;;;;;;;16;50.2;99450;;;;
2023/05/04 10:48:51;;;;;;;6.6;4.3;;;;;;;16;51.7;99440;;;;
2023/05/04 10:59:51;;;;;;;6.6;4.3;;;;;;;16.4;52.1;99430;;;;
2023/05/04 11:09:50;;;;;;;6.6;4.3;;;;;;;16;50.9;99420;;;;
2023/05/04 11:20:50;;;;;;;7.1;4.6;;;;;;;16.3;53.8;99410;;;;
2023/05/04 11:30:50;;;;;;;7.1;4.6;;;;;;;16.6;51.2;99400;;;;
2023/05/04 11:41:50;;;;;;;7.1;4.6;;;;;;;17.2;51.2;99380;;;;
2023/05/04 11:52:50;;;;;;;8.4;4.9;;;;;;;17.9;53.2;99380;;;;
2023/05/04 12:02:50;;;;;;;8.4;4.9;;;;;;;17.7;49.5;99380;;;;
2023/05/04 12:12:50;;;;;;;8.4;4.9;;;;;;;17.7;50.9;99370;;;;
2023/05/04 12:23:50;;;;;;;8.8;4.8;;;;;;;18.1;48.3;99360;;;;
2023/05/04 12:33:50;;;;;;;8.8;4.8;;;;;;;17.6;48.3;99360;;;;
2023/05/04 12:44:51;;;;;;;8.8;4.8;;;;;;;17.3;49.6;99350;;;;
2023/05/04 12:54:50;;;;;;;8.6;5;;;;;;;17.9;48.6;99340;;;;
2023/05/04 13:04:50;;;;;;;8.6;5;;;;;;;17.1;48.5;99330;;;;
2023/05/04 13:14:54;;;;;;;8.6;5;;;;;;;17.1;47.7;99330;;;;
2023/05/04 13:25:50;;;;;;;8.7;4.8;;;;;;;17.1;50.7;99320;;;;
2023/05/04 13:35:50;;;;;;;8.7;4.8;;;;;;;17.2;50;99310;;;;
2023/05/04 13:45:51;;;;;;;8.7;4.8;;;;;;;18.1;49.9;99300;;;;
2023/05/04 13:55:50;;;;;;;8.6;5;;;;;;;18.2;48;99290;;;;
2023/05/04 14:05:51;;;;;;;8.6;5;;;;;;;18.2;46.3;99270;;;;
2023/05/04 14:15:51;;;;;;;8.6;5;;;;;;;18.2;45.2;99270;;;;
2023/05/04 14:26:50;;;;;;;6.6;3.7;;;;;;;18.1;43.7;99270;;;;
2023/05/04 14:36:50;;;;;;;6.6;3.7;;;;;;;18.4;44.4;99260;;;;
2023/05/04 14:46:50;;;;;;;6.6;3.7;;;;;;;18.3;40.4;99260;;;;
2023/05/04 14:56:51;;;;;;;6.2;3.7;;;;;;;18.2;41.8;99260;;;;
2023/05/04 15:07:50;;;;;;;6.2;3.7;;;;;;;18.6;42.3;99250;;;;
2023/05/04 15:18:50;;;;;;;6.1;3.5;;;;;;;21.6;36;99250;;;;
2023/05/04 15:28:50;;;;;;;6.1;3.5;;;;;;;24.1;32;99250;;;;
2023/05/04 15:39:50;;;;;;;6.1;3.5;;;;;;;24.1;32;99240;;;;
2023/05/04 15:50:50;;;;;;;8.2;2.3;;;;;;;24.1;31.1;99230;;;;
2023/05/04 16:01:50;;;;;;;8.2;2.3;;;;;;;24.3;30.5;99230;;;;
2023/05/04 16:11:51;;;;;;;8.2;2.3;;;;;;;23.3;31.2;99220;;;;
2023/05/04 16:22:51;;;;;;;5.1;2.2;;;;;;;20.5;35.8;99210;;;;
2023/05/04 16:33:51;;;;;;;5.1;2.2;;;;;;;18.5;40.3;99220;;;;
2023/05/04 16:44:50;;;;;;;5.1;2.2;;;;;;;17.4;43.4;99210;;;;
2023/05/04 16:54:50;;;;;;;8.7;5.9;;;;;;;16.8;44.5;99210;;;;
2023/05/04 17:04:51;;;;;;;8.7;5.9;;;;;;;16.1;45.8;99220;;;;
2023/05/04 17:15:51;;;;;;;8.7;5.9;;;;;;;16;46.5;99210;;;;
2023/05/04 17:25:50;;;;;;;7.9;6.4;;;;;;;15.8;46.2;99220;;;;
2023/05/04 17:35:51;;;;;;;7.9;6.4;;;;;;;15.2;47.3;99220;;;;
2023/05/04 17:45:51;;;;;;;7.9;6.4;;;;;;;14.6;48.6;99230;;;;
2023/05/04 17:56:51;;;;;;;17.8;14.2;;;;;;;13.8;50.7;99240;;;;
2023/05/04 18:06:51;;;;;;;17.8;14.2;;;;;;;13.1;53;99240;;;;
2023/05/04 18:16:51;;;;;;;17.8;14.2;;;;;;;12.6;54.1;99250;;;;
2023/05/04 18:27:51;;;;;;;5.6;3.5;;;;;;;12;57;99260;;;;
2023/05/04 18:38:52;;;;;;;5.6;3.5;;;;;;;11.6;61;99280;;;;
2023/05/04 18:48:51;;;;;;;14.9;7.7;;;;;;;11.3;61.5;99280;;;;
2023/05/04 18:59:51;;;;;;;14.9;7.7;;;;;;;11.1;62.1;99280;;;;
2023/05/04 19:09:51;;;;;;;14.9;7.7;;;;;;;10.9;62.8;99270;;;;
2023/05/04 19:20:51;;;;;;;32.6;19.4;;;;;;;10.7;63.1;99270;;;;
2023/05/04 19:30:52;;;;;;;32.6;19.4;;;;;;;10.5;62.4;99270;;;;
2023/05/04 19:41:51;;;;;;;32.6;19.4;;;;;;;10.2;62.6;99270;;;;
2023/05/04 19:52:51;;;;;;;145.2;72.6;;;;;;;10;63;99260;;;;
2023/05/04 20:03:51;;;;;;;145.2;72.6;;;;;;;9.9;63.7;99250;;;;
2023/05/04 20:13:51;;;;;;;145.2;72.6;;;;;;;9.9;63.2;99250;;;;
2023/05/04 20:23:51;;;;;;;7.5;3.5;;;;;;;9.6;63.1;99250;;;;
2023/05/04 20:34:51;;;;;;;7.5;3.5;;;;;;;9.5;63.5;99240;;;;
2023/05/04 20:44:51;;;;;;;7.5;3.5;;;;;;;9.4;64.1;99240;;;;
2023/05/04 20:55:51;;;;;;;7.7;4.1;;;;;;;9.2;64.7;99230;;;;
2023/05/04 21:06:51;;;;;;;7.7;4.1;;;;;;;9.1;65.1;99220;;;;
2023/05/04 21:16:51;;;;;;;7.7;4.1;;;;;;;9;65.9;99220;;;;
2023/05/04 21:27:51;;;;;;;8.5;3.9;;;;;;;9;66.2;99220;;;;
2023/05/04 21:38:51;;;;;;;8.5;3.9;;;;;;;8.9;66.5;99210;;;;
2023/05/04 21:49:52;;;;;;;8.7;4.2;;;;;;;8.8;66.7;99210;;;;
2023/05/04 22:00:52;;;;;;;8.7;4.2;;;;;;;8.6;67.2;99210;;;;
2023/05/04 22:10:51;;;;;;;8.7;4.2;;;;;;;8.5;67.6;99210;;;;
2023/05/04 22:20:51;;;;;;;7.5;3.6;;;;;;;8.3;68.5;99200;;;;
2023/05/04 22:31:51;;;;;;;7.5;3.6;;;;;;;8.2;69.8;99210;;;;
2023/05/04 22:41:51;;;;;;;7.5;3.6;;;;;;;8.1;72.2;99190;;;;
2023/05/04 22:52:51;;;;;;;11.6;6;;;;;;;7.9;76.4;99180;;;;
2023/05/04 23:02:51;;;;;;;11.6;6;;;;;;;7.8;75;99190;;;;
2023/05/04 23:13:51;;;;;;;11.6;6;;;;;;;7.7;76.7;99190;;;;
2023/05/04 23:23:51;;;;;;;12.9;7.3;;;;;;;7.5;78;99180;;;;
2023/05/04 23:33:51;;;;;;;12.9;7.3;;;;;;;7.6;78.2;99180;;;;
2023/05/04 23:44:51;;;;;;;12.9;7.3;;;;;;;7.6;77.8;99150;;;;
2023/05/04 23:55:51;;;;;;;12.8;7.4;;;;;;;7.4;77.2;99160;;;;
